Terminal Aerodrome Forecast
Issued by NWS

Home | Current Version | Previous Version | Text Only | Print | Product List | Glossary On
Versions: 1 2 3 4 5 6 7 8 9 10 11 12
000
FTUS45 KRIW 182300
TAFBPI
TAF
KBPI 182320Z 1900/1924 04008KT P6SM SCT110
     FM190400 34006KT P6SM FEW120
     FM190700 VRB05KT P6SM SCT150
     FM191500 VRB05KT P6SM SCT100 BKN200
     FM192100 VRB11KT P6SM VCTS SCT060CB BKN100=

USA.gov is the U.S. government's official web portal to all federal, state and local government web resources and services.